sensor_id;sensor_type;location;lat;lon;timestamp;temperature;humidity
19058;DHT22;9662;53.612;9.914;2022-11-20T00:00:16;3.00;99.90
19058;DHT22;9662;53.612;9.914;2022-11-20T00:02:43;3.00;99.90
19058;DHT22;9662;53.612;9.914;2022-11-20T00:05:10;3.00;99.90
19058;DHT22;9662;53.612;9.914;2022-11-20T00:07:37;3.00;99.90
19058;DHT22;9662;53.612;9.914;2022-11-20T00:10:04;3.00;99.90
19058;DHT22;9662;53.612;9.914;2022-11-20T00:12:31;3.10;99.90
19058;DHT22;9662;53.612;9.914;2022-11-20T00:15:00;3.10;99.90
19058;DHT22;9662;53.612;9.914;2022-11-20T00:17:26;3.00;99.90
19058;DHT22;9662;53.612;9.914;2022-11-20T00:19:53;3.00;99.90
19058;DHT22;9662;53.612;9.914;2022-11-20T00:22:20;2.90;99.90
19058;DHT22;9662;53.612;9.914;2022-11-20T00:24:47;3.00;99.90
19058;DHT22;9662;53.612;9.914;2022-11-20T00:27:14;3.00;99.90
19058;DHT22;9662;53.612;9.914;2022-11-20T00:29:40;3.10;99.90
19058;DHT22;9662;53.612;9.914;2022-11-20T00:32:08;3.10;99.90
19058;DHT22;9662;53.612;9.914;2022-11-20T00:34:35;2.90;99.90
19058;DHT22;9662;53.612;9.914;2022-11-20T00:37:02;2.90;99.90
19058;DHT22;9662;53.612;9.914;2022-11-20T00:39:29;3.00;99.90
19058;DHT22;9662;53.612;9.914;2022-11-20T00:41:56;3.00;99.90
19058;DHT22;9662;53.612;9.914;2022-11-20T00:44:22;3.00;99.90
19058;DHT22;9662;53.612;9.914;2022-11-20T00:46:49;3.10;99.90
19058;DHT22;9662;53.612;9.914;2022-11-20T00:49:18;2.90;99.90
19058;DHT22;9662;53.612;9.914;2022-11-20T00:51:45;2.80;99.90
19058;DHT22;9662;53.612;9.914;2022-11-20T00:54:11;2.90;99.90
19058;DHT22;9662;53.612;9.914;2022-11-20T00:56:38;2.90;99.90
19058;DHT22;9662;53.612;9.914;2022-11-20T00:59:05;2.70;99.90
19058;DHT22;9662;53.612;9.914;2022-11-20T01:01:32;2.90;99.90
19058;DHT22;9662;53.612;9.914;2022-11-20T01:03:59;2.90;99.90
19058;DHT22;9662;53.612;9.914;2022-11-20T01:06:29;2.90;99.90
19058;DHT22;9662;53.612;9.914;2022-11-20T01:08:57;3.00;99.90
19058;DHT22;9662;53.612;9.914;2022-11-20T01:11:26;3.10;99.90
19058;DHT22;9662;53.612;9.914;2022-11-20T01:13:54;3.10;99.90
19058;DHT22;9662;53.612;9.914;2022-11-20T01:16:23;3.10;99.90
19058;DHT22;9662;53.612;9.914;2022-11-20T01:18:52;3.10;99.90
19058;DHT22;9662;53.612;9.914;2022-11-20T01:21:21;3.10;99.90
19058;DHT22;9662;53.612;9.914;2022-11-20T01:23:51;3.10;99.90
19058;DHT22;9662;53.612;9.914;2022-11-20T01:26:20;3.20;99.90
19058;DHT22;9662;53.612;9.914;2022-11-20T01:28:48;3.10;99.90
19058;DHT22;9662;53.612;9.914;2022-11-20T01:31:17;2.90;99.90
19058;DHT22;9662;53.612;9.914;2022-11-20T01:33:45;2.90;99.90
19058;DHT22;9662;53.612;9.914;2022-11-20T01:36:14;2.90;99.90
19058;DHT22;9662;53.612;9.914;2022-11-20T01:38:41;2.90;99.90
19058;DHT22;9662;53.612;9.914;2022-11-20T01:41:11;2.90;99.90
19058;DHT22;9662;53.612;9.914;2022-11-20T01:43:59;2.80;99.90
19058;DHT22;9662;53.612;9.914;2022-11-20T01:46:25;2.80;99.90
19058;DHT22;9662;53.612;9.914;2022-11-20T01:48:55;2.80;99.90
19058;DHT22;9662;53.612;9.914;2022-11-20T01:51:27;2.90;99.90
19058;DHT22;9662;53.612;9.914;2022-11-20T01:53:57;2.80;99.90
19058;DHT22;9662;53.612;9.914;2022-11-20T01:56:26;2.80;99.90
19058;DHT22;9662;53.612;9.914;2022-11-20T01:58:57;2.80;99.90
19058;DHT22;9662;53.612;9.914;2022-11-20T02:01:25;2.90;99.90
19058;DHT22;9662;53.612;9.914;2022-11-20T02:03:52;2.80;99.90
19058;DHT22;9662;53.612;9.914;2022-11-20T02:06:23;2.80;99.90
19058;DHT22;9662;53.612;9.914;2022-11-20T02:08:51;2.80;99.90
19058;DHT22;9662;53.612;9.914;2022-11-20T02:11:18;2.70;99.90
19058;DHT22;9662;53.612;9.914;2022-11-20T02:13:47;2.80;99.90
19058;DHT22;9662;53.612;9.914;2022-11-20T02:16:16;2.80;99.90
19058;DHT22;9662;53.612;9.914;2022-11-20T02:18:46;2.80;99.90
19058;DHT22;9662;53.612;9.914;2022-11-20T02:21:19;2.80;99.90
19058;DHT22;9662;53.612;9.914;2022-11-20T02:24:02;2.80;99.90
19058;DHT22;9662;53.612;9.914;2022-11-20T02:26:33;2.80;99.90
19058;DHT22;9662;53.612;9.914;2022-11-20T02:29:02;2.80;99.90
19058;DHT22;9662;53.612;9.914;2022-11-20T02:31:35;2.80;99.90
19058;DHT22;9662;53.612;9.914;2022-11-20T02:34:02;2.80;99.90
19058;DHT22;9662;53.612;9.914;2022-11-20T02:36:30;2.80;99.90
19058;DHT22;9662;53.612;9.914;2022-11-20T02:39:00;2.70;99.90
19058;DHT22;9662;53.612;9.914;2022-11-20T02:41:31;2.70;99.90
19058;DHT22;9662;53.612;9.914;2022-11-20T02:43:58;2.70;99.90
19058;DHT22;9662;53.612;9.914;2022-11-20T02:46:25;2.70;99.90
19058;DHT22;9662;53.612;9.914;2022-11-20T02:48:52;2.70;99.90
19058;DHT22;9662;53.612;9.914;2022-11-20T02:51:19;2.70;99.90
19058;DHT22;9662;53.612;9.914;2022-11-20T02:53:45;2.70;99.90
19058;DHT22;9662;53.612;9.914;2022-11-20T02:56:14;2.70;99.90
19058;DHT22;9662;53.612;9.914;2022-11-20T02:58:41;2.70;99.90
19058;DHT22;9662;53.612;9.914;2022-11-20T03:01:07;2.70;99.90
19058;DHT22;9662;53.612;9.914;2022-11-20T03:03:34;2.70;99.90
19058;DHT22;9662;53.612;9.914;2022-11-20T03:06:01;2.50;99.90
19058;DHT22;9662;53.612;9.914;2022-11-20T03:08:28;2.60;99.90
19058;DHT22;9662;53.612;9.914;2022-11-20T03:10:55;2.60;99.90
19058;DHT22;9662;53.612;9.914;2022-11-20T03:13:24;2.60;99.90
19058;DHT22;9662;53.612;9.914;2022-11-20T03:15:51;2.60;99.90
19058;DHT22;9662;53.612;9.914;2022-11-20T03:18:18;2.60;99.90
19058;DHT22;9662;53.612;9.914;2022-11-20T03:20:45;2.70;99.90
19058;DHT22;9662;53.612;9.914;2022-11-20T03:23:12;2.70;99.90
19058;DHT22;9662;53.612;9.914;2022-11-20T03:25:39;2.70;99.90
19058;DHT22;9662;53.612;9.914;2022-11-20T03:28:05;2.60;99.90
19058;DHT22;9662;53.612;9.914;2022-11-20T03:30:34;2.70;99.90
19058;DHT22;9662;53.612;9.914;2022-11-20T03:33:01;2.70;99.90
19058;DHT22;9662;53.612;9.914;2022-11-20T03:35:28;2.70;99.90
19058;DHT22;9662;53.612;9.914;2022-11-20T03:37:55;2.70;99.90
19058;DHT22;9662;53.612;9.914;2022-11-20T03:40:22;2.70;99.90
19058;DHT22;9662;53.612;9.914;2022-11-20T03:42:49;2.70;99.90
19058;DHT22;9662;53.612;9.914;2022-11-20T03:45:17;2.70;99.90
19058;DHT22;9662;53.612;9.914;2022-11-20T03:47:46;2.70;99.90
19058;DHT22;9662;53.612;9.914;2022-11-20T03:50:13;2.70;99.90
19058;DHT22;9662;53.612;9.914;2022-11-20T03:52:40;2.80;99.90
19058;DHT22;9662;53.612;9.914;2022-11-20T03:55:08;2.80;99.90
19058;DHT22;9662;53.612;9.914;2022-11-20T03:57:35;2.70;99.90
19058;DHT22;9662;53.612;9.914;2022-11-20T04:00:03;2.80;99.90
19058;DHT22;9662;53.612;9.914;2022-11-20T04:02:30;2.80;99.90
19058;DHT22;9662;53.612;9.914;2022-11-20T04:04:58;2.80;99.90
19058;DHT22;9662;53.612;9.914;2022-11-20T04:07:25;2.90;99.90
19058;DHT22;9662;53.612;9.914;2022-11-20T04:09:51;2.80;99.90
19058;DHT22;9662;53.612;9.914;2022-11-20T04:12:18;2.80;99.90
19058;DHT22;9662;53.612;9.914;2022-11-20T04:14:45;2.80;99.90
19058;DHT22;9662;53.612;9.914;2022-11-20T04:17:12;2.90;99.90
19058;DHT22;9662;53.612;9.914;2022-11-20T04:19:39;2.80;99.90
19058;DHT22;9662;53.612;9.914;2022-11-20T04:22:07;2.90;99.90
19058;DHT22;9662;53.612;9.914;2022-11-20T04:24:34;2.90;99.90
19058;DHT22;9662;53.612;9.914;2022-11-20T04:27:00;2.80;99.90
19058;DHT22;9662;53.612;9.914;2022-11-20T04:29:27;2.80;99.90
19058;DHT22;9662;53.612;9.914;2022-11-20T04:31:54;2.70;99.90
19058;DHT22;9662;53.612;9.914;2022-11-20T04:34:21;2.70;99.90
19058;DHT22;9662;53.612;9.914;2022-11-20T04:36:47;2.80;99.90
19058;DHT22;9662;53.612;9.914;2022-11-20T04:39:16;2.80;99.90
19058;DHT22;9662;53.612;9.914;2022-11-20T04:41:43;2.80;99.90
19058;DHT22;9662;53.612;9.914;2022-11-20T04:44:09;2.80;99.90
19058;DHT22;9662;53.612;9.914;2022-11-20T04:46:37;2.70;99.90
19058;DHT22;9662;53.612;9.914;2022-11-20T04:49:05;2.70;99.90
19058;DHT22;9662;53.612;9.914;2022-11-20T04:51:32;2.80;99.90
19058;DHT22;9662;53.612;9.914;2022-11-20T04:53:59;2.80;99.90
19058;DHT22;9662;53.612;9.914;2022-11-20T04:56:27;2.70;99.90
19058;DHT22;9662;53.612;9.914;2022-11-20T04:58:54;2.70;99.90
19058;DHT22;9662;53.612;9.914;2022-11-20T05:01:23;2.80;99.90
19058;DHT22;9662;53.612;9.914;2022-11-20T05:03:50;2.80;99.90
19058;DHT22;9662;53.612;9.914;2022-11-20T05:06:19;2.80;99.90
19058;DHT22;9662;53.612;9.914;2022-11-20T05:08:46;2.80;99.90
19058;DHT22;9662;53.612;9.914;2022-11-20T05:11:14;2.80;99.90
19058;DHT22;9662;53.612;9.914;2022-11-20T05:13:42;2.80;99.90
19058;DHT22;9662;53.612;9.914;2022-11-20T05:16:12;2.80;99.90
19058;DHT22;9662;53.612;9.914;2022-11-20T05:18:39;2.80;99.90
19058;DHT22;9662;53.612;9.914;2022-11-20T05:21:07;2.80;99.90
19058;DHT22;9662;53.612;9.914;2022-11-20T05:23:35;2.80;99.90
19058;DHT22;9662;53.612;9.914;2022-11-20T05:26:03;2.70;99.90
19058;DHT22;9662;53.612;9.914;2022-11-20T05:28:30;2.70;99.90
19058;DHT22;9662;53.612;9.914;2022-11-20T05:31:05;2.70;99.90
19058;DHT22;9662;53.612;9.914;2022-11-20T05:33:33;2.60;99.90
19058;DHT22;9662;53.612;9.914;2022-11-20T05:35:59;2.60;99.90
19058;DHT22;9662;53.612;9.914;2022-11-20T05:38:26;2.60;99.90
19058;DHT22;9662;53.612;9.914;2022-11-20T05:40:53;2.60;99.90
19058;DHT22;9662;53.612;9.914;2022-11-20T05:43:20;2.50;99.90
19058;DHT22;9662;53.612;9.914;2022-11-20T05:45:52;2.50;99.90
19058;DHT22;9662;53.612;9.914;2022-11-20T05:48:21;2.50;99.90
19058;DHT22;9662;53.612;9.914;2022-11-20T05:50:47;2.40;99.90
19058;DHT22;9662;53.612;9.914;2022-11-20T05:53:14;2.40;99.90
19058;DHT22;9662;53.612;9.914;2022-11-20T05:55:41;2.40;99.90
19058;DHT22;9662;53.612;9.914;2022-11-20T05:58:08;2.50;99.90
19058;DHT22;9662;53.612;9.914;2022-11-20T06:00:35;2.50;99.90
19058;DHT22;9662;53.612;9.914;2022-11-20T06:03:02;2.50;99.90
19058;DHT22;9662;53.612;9.914;2022-11-20T06:05:31;2.50;99.90
19058;DHT22;9662;53.612;9.914;2022-11-20T06:08:00;2.60;99.90
19058;DHT22;9662;53.612;9.914;2022-11-20T06:10:27;2.50;99.90
19058;DHT22;9662;53.612;9.914;2022-11-20T06:12:57;2.40;99.90
19058;DHT22;9662;53.612;9.914;2022-11-20T06:15:24;2.50;99.90
19058;DHT22;9662;53.612;9.914;2022-11-20T06:17:52;2.40;99.90
19058;DHT22;9662;53.612;9.914;2022-11-20T06:20:19;2.40;99.90
19058;DHT22;9662;53.612;9.914;2022-11-20T06:22:47;2.50;99.90
19058;DHT22;9662;53.612;9.914;2022-11-20T06:25:14;2.40;99.90
19058;DHT22;9662;53.612;9.914;2022-11-20T06:27:41;2.50;99.90
19058;DHT22;9662;53.612;9.914;2022-11-20T06:30:09;2.50;99.90
19058;DHT22;9662;53.612;9.914;2022-11-20T06:32:36;2.20;99.90
19058;DHT22;9662;53.612;9.914;2022-11-20T06:35:04;2.20;99.90
19058;DHT22;9662;53.612;9.914;2022-11-20T06:37:31;2.20;99.90
19058;DHT22;9662;53.612;9.914;2022-11-20T06:39:59;2.20;99.90
19058;DHT22;9662;53.612;9.914;2022-11-20T06:42:26;2.10;99.90
19058;DHT22;9662;53.612;9.914;2022-11-20T06:44:53;2.00;99.90
19058;DHT22;9662;53.612;9.914;2022-11-20T06:47:19;2.00;99.90
19058;DHT22;9662;53.612;9.914;2022-11-20T06:49:46;1.80;99.90
19058;DHT22;9662;53.612;9.914;2022-11-20T06:52:13;1.80;99.90
19058;DHT22;9662;53.612;9.914;2022-11-20T06:54:40;1.80;99.90
19058;DHT22;9662;53.612;9.914;2022-11-20T06:57:08;1.80;99.90
19058;DHT22;9662;53.612;9.914;2022-11-20T06:59:35;1.80;99.90
19058;DHT22;9662;53.612;9.914;2022-11-20T07:02:01;1.80;99.90
19058;DHT22;9662;53.612;9.914;2022-11-20T07:04:28;1.80;99.90
19058;DHT22;9662;53.612;9.914;2022-11-20T07:06:55;1.80;99.90
19058;DHT22;9662;53.612;9.914;2022-11-20T07:09:22;1.90;99.90
19058;DHT22;9662;53.612;9.914;2022-11-20T07:11:49;1.90;99.90
19058;DHT22;9662;53.612;9.914;2022-11-20T07:14:17;2.10;99.90
19058;DHT22;9662;53.612;9.914;2022-11-20T07:16:44;2.10;99.90
19058;DHT22;9662;53.612;9.914;2022-11-20T07:19:10;2.20;99.90
19058;DHT22;9662;53.612;9.914;2022-11-20T07:21:37;2.20;99.90
19058;DHT22;9662;53.612;9.914;2022-11-20T07:24:04;2.20;99.90
19058;DHT22;9662;53.612;9.914;2022-11-20T07:26:31;2.20;99.90
19058;DHT22;9662;53.612;9.914;2022-11-20T07:28:58;2.30;99.90
19058;DHT22;9662;53.612;9.914;2022-11-20T07:31:26;2.40;99.90
19058;DHT22;9662;53.612;9.914;2022-11-20T07:33:53;2.40;99.90
19058;DHT22;9662;53.612;9.914;2022-11-20T07:36:19;2.50;99.90
19058;DHT22;9662;53.612;9.914;2022-11-20T07:38:46;2.50;99.90
19058;DHT22;9662;53.612;9.914;2022-11-20T07:41:13;2.30;99.90
19058;DHT22;9662;53.612;9.914;2022-11-20T07:43:41;2.10;99.90
19058;DHT22;9662;53.612;9.914;2022-11-20T07:46:08;2.20;99.90
19058;DHT22;9662;53.612;9.914;2022-11-20T07:48:36;2.30;99.90
19058;DHT22;9662;53.612;9.914;2022-11-20T07:51:03;2.50;99.90
19058;DHT22;9662;53.612;9.914;2022-11-20T07:53:30;2.70;99.90
19058;DHT22;9662;53.612;9.914;2022-11-20T07:55:59;2.70;99.90
19058;DHT22;9662;53.612;9.914;2022-11-20T07:58:26;2.60;99.90
19058;DHT22;9662;53.612;9.914;2022-11-20T08:00:55;2.70;99.90
19058;DHT22;9662;53.612;9.914;2022-11-20T08:03:21;2.80;99.90
19058;DHT22;9662;53.612;9.914;2022-11-20T08:05:50;2.90;99.90
19058;DHT22;9662;53.612;9.914;2022-11-20T08:08:17;2.90;99.90
19058;DHT22;9662;53.612;9.914;2022-11-20T08:10:44;3.00;99.90
19058;DHT22;9662;53.612;9.914;2022-11-20T08:13:11;2.70;99.90
19058;DHT22;9662;53.612;9.914;2022-11-20T08:15:55;2.50;99.90
19058;DHT22;9662;53.612;9.914;2022-11-20T08:18:22;2.60;99.90
19058;DHT22;9662;53.612;9.914;2022-11-20T08:20:50;2.70;99.90
19058;DHT22;9662;53.612;9.914;2022-11-20T08:23:17;2.80;99.90
19058;DHT22;9662;53.612;9.914;2022-11-20T08:25:48;2.90;99.90
19058;DHT22;9662;53.612;9.914;2022-11-20T08:28:15;2.60;99.90
19058;DHT22;9662;53.612;9.914;2022-11-20T08:30:42;2.70;99.90
19058;DHT22;9662;53.612;9.914;2022-11-20T08:33:09;2.60;99.90
19058;DHT22;9662;53.612;9.914;2022-11-20T08:35:36;2.80;99.90
19058;DHT22;9662;53.612;9.914;2022-11-20T08:38:05;2.90;99.90
19058;DHT22;9662;53.612;9.914;2022-11-20T08:40:33;3.00;99.90
19058;DHT22;9662;53.612;9.914;2022-11-20T08:43:00;2.90;99.90
19058;DHT22;9662;53.612;9.914;2022-11-20T08:45:26;2.90;99.90
19058;DHT22;9662;53.612;9.914;2022-11-20T08:47:53;2.90;99.90
19058;DHT22;9662;53.612;9.914;2022-11-20T08:50:20;2.80;99.90
19058;DHT22;9662;53.612;9.914;2022-11-20T08:52:47;2.90;99.90
19058;DHT22;9662;53.612;9.914;2022-11-20T08:55:15;3.00;99.90
19058;DHT22;9662;53.612;9.914;2022-11-20T08:57:42;3.00;99.90
19058;DHT22;9662;53.612;9.914;2022-11-20T09:00:10;3.10;99.90
19058;DHT22;9662;53.612;9.914;2022-11-20T09:02:37;3.30;99.90
19058;DHT22;9662;53.612;9.914;2022-11-20T09:05:05;3.40;99.90
19058;DHT22;9662;53.612;9.914;2022-11-20T09:07:32;3.30;99.90
19058;DHT22;9662;53.612;9.914;2022-11-20T09:09:58;3.40;99.90
19058;DHT22;9662;53.612;9.914;2022-11-20T09:12:27;3.40;99.90
19058;DHT22;9662;53.612;9.914;2022-11-20T09:14:53;3.40;99.90
19058;DHT22;9662;53.612;9.914;2022-11-20T09:17:20;3.20;99.90
19058;DHT22;9662;53.612;9.914;2022-11-20T09:19:47;3.30;99.90
19058;DHT22;9662;53.612;9.914;2022-11-20T09:22:14;3.30;99.90
19058;DHT22;9662;53.612;9.914;2022-11-20T09:24:41;3.30;99.90
19058;DHT22;9662;53.612;9.914;2022-11-20T09:27:08;3.30;99.90
19058;DHT22;9662;53.612;9.914;2022-11-20T09:29:36;3.20;99.90
19058;DHT22;9662;53.612;9.914;2022-11-20T09:32:03;3.10;99.90
19058;DHT22;9662;53.612;9.914;2022-11-20T09:34:30;3.10;99.90
19058;DHT22;9662;53.612;9.914;2022-11-20T09:36:57;3.10;99.90
19058;DHT22;9662;53.612;9.914;2022-11-20T09:39:24;3.00;99.90
19058;DHT22;9662;53.612;9.914;2022-11-20T09:42:03;3.20;99.90
19058;DHT22;9662;53.612;9.914;2022-11-20T09:44:45;3.30;99.90
19058;DHT22;9662;53.612;9.914;2022-11-20T09:47:22;3.30;99.90
19058;DHT22;9662;53.612;9.914;2022-11-20T09:50:00;3.40;99.90
19058;DHT22;9662;53.612;9.914;2022-11-20T09:52:33;3.50;99.90
19058;DHT22;9662;53.612;9.914;2022-11-20T09:55:04;3.60;99.90
19058;DHT22;9662;53.612;9.914;2022-11-20T09:57:37;3.60;99.90
19058;DHT22;9662;53.612;9.914;2022-11-20T10:00:10;3.70;99.90
19058;DHT22;9662;53.612;9.914;2022-11-20T10:02:42;3.90;99.90
19058;DHT22;9662;53.612;9.914;2022-11-20T10:05:15;4.00;99.90
19058;DHT22;9662;53.612;9.914;2022-11-20T10:07:48;4.10;99.90
19058;DHT22;9662;53.612;9.914;2022-11-20T10:10:29;4.10;99.90
19058;DHT22;9662;53.612;9.914;2022-11-20T10:13:11;4.10;99.90
19058;DHT22;9662;53.612;9.914;2022-11-20T10:15:47;4.10;99.90
19058;DHT22;9662;53.612;9.914;2022-11-20T10:18:27;4.10;99.90
19058;DHT22;9662;53.612;9.914;2022-11-20T10:21:05;4.10;99.90
19058;DHT22;9662;53.612;9.914;2022-11-20T10:23:52;4.00;99.90
19058;DHT22;9662;53.612;9.914;2022-11-20T10:26:28;3.70;99.90
19058;DHT22;9662;53.612;9.914;2022-11-20T10:29:07;3.80;99.90
19058;DHT22;9662;53.612;9.914;2022-11-20T10:31:38;4.10;99.90
19058;DHT22;9662;53.612;9.914;2022-11-20T10:34:12;4.30;99.90
19058;DHT22;9662;53.612;9.914;2022-11-20T10:36:46;4.50;99.90
19058;DHT22;9662;53.612;9.914;2022-11-20T10:39:18;4.30;99.90
19058;DHT22;9662;53.612;9.914;2022-11-20T10:41:50;4.00;99.90
19058;DHT22;9662;53.612;9.914;2022-11-20T10:44:20;3.40;99.90
19058;DHT22;9662;53.612;9.914;2022-11-20T10:47:03;2.80;99.90
19058;DHT22;9662;53.612;9.914;2022-11-20T10:49:31;2.50;99.90
19058;DHT22;9662;53.612;9.914;2022-11-20T10:52:04;2.50;99.90
19058;DHT22;9662;53.612;9.914;2022-11-20T10:54:38;2.60;99.90
19058;DHT22;9662;53.612;9.914;2022-11-20T10:57:18;2.70;99.90
19058;DHT22;9662;53.612;9.914;2022-11-20T11:00:00;3.10;99.90
19058;DHT22;9662;53.612;9.914;2022-11-20T11:02:35;3.00;99.90
19058;DHT22;9662;53.612;9.914;2022-11-20T11:05:12;3.10;99.90
19058;DHT22;9662;53.612;9.914;2022-11-20T11:07:41;3.00;99.90
19058;DHT22;9662;53.612;9.914;2022-11-20T11:10:15;3.30;99.90
19058;DHT22;9662;53.612;9.914;2022-11-20T11:12:45;3.40;99.90
19058;DHT22;9662;53.612;9.914;2022-11-20T11:15:15;3.70;99.90
19058;DHT22;9662;53.612;9.914;2022-11-20T11:17:52;3.90;99.90
19058;DHT22;9662;53.612;9.914;2022-11-20T11:20:20;3.90;99.90
19058;DHT22;9662;53.612;9.914;2022-11-20T11:22:48;4.00;99.90
19058;DHT22;9662;53.612;9.914;2022-11-20T11:25:25;4.10;99.90
19058;DHT22;9662;53.612;9.914;2022-11-20T11:27:53;4.10;99.90
19058;DHT22;9662;53.612;9.914;2022-11-20T11:30:22;3.90;99.90
19058;DHT22;9662;53.612;9.914;2022-11-20T11:32:49;3.40;99.90
19058;DHT22;9662;53.612;9.914;2022-11-20T11:35:24;3.40;99.90
19058;DHT22;9662;53.612;9.914;2022-11-20T11:37:53;3.30;99.90
19058;DHT22;9662;53.612;9.914;2022-11-20T11:40:22;3.30;99.90
19058;DHT22;9662;53.612;9.914;2022-11-20T11:42:56;3.20;99.90
19058;DHT22;9662;53.612;9.914;2022-11-20T11:45:23;2.90;99.90
19058;DHT22;9662;53.612;9.914;2022-11-20T11:47:51;3.10;99.90
19058;DHT22;9662;53.612;9.914;2022-11-20T11:50:22;3.30;99.90
19058;DHT22;9662;53.612;9.914;2022-11-20T11:53:03;3.50;99.90
19058;DHT22;9662;53.612;9.914;2022-11-20T11:55:36;3.90;99.90
19058;DHT22;9662;53.612;9.914;2022-11-20T11:58:30;4.20;99.90
19058;DHT22;9662;53.612;9.914;2022-11-20T12:01:04;4.40;99.90
19058;DHT22;9662;53.612;9.914;2022-11-20T12:03:36;4.10;99.90
19058;DHT22;9662;53.612;9.914;2022-11-20T12:06:10;3.90;99.90
19058;DHT22;9662;53.612;9.914;2022-11-20T12:08:43;4.20;99.90
19058;DHT22;9662;53.612;9.914;2022-11-20T12:11:16;4.20;99.90
19058;DHT22;9662;53.612;9.914;2022-11-20T12:13:50;4.20;99.90
19058;DHT22;9662;53.612;9.914;2022-11-20T12:16:20;4.20;99.90
19058;DHT22;9662;53.612;9.914;2022-11-20T12:18:49;4.10;99.90
19058;DHT22;9662;53.612;9.914;2022-11-20T12:21:28;4.20;99.90
19058;DHT22;9662;53.612;9.914;2022-11-20T12:26:59;4.00;99.90
19058;DHT22;9662;53.612;9.914;2022-11-20T12:29:36;4.20;99.90
19058;DHT22;9662;53.612;9.914;2022-11-20T12:32:22;4.00;99.90
19058;DHT22;9662;53.612;9.914;2022-11-20T12:35:00;3.90;99.90
19058;DHT22;9662;53.612;9.914;2022-11-20T12:37:39;3.80;99.90
19058;DHT22;9662;53.612;9.914;2022-11-20T12:40:24;3.90;99.90
19058;DHT22;9662;53.612;9.914;2022-11-20T12:43:01;3.80;99.90
19058;DHT22;9662;53.612;9.914;2022-11-20T12:46:15;3.70;99.90
19058;DHT22;9662;53.612;9.914;2022-11-20T12:49:07;3.80;99.90
19058;DHT22;9662;53.612;9.914;2022-11-20T12:57:35;3.50;99.90
19058;DHT22;9662;53.612;9.914;2022-11-20T13:00:11;3.60;99.90
19058;DHT22;9662;53.612;9.914;2022-11-20T13:03:00;3.90;99.90
19058;DHT22;9662;53.612;9.914;2022-11-20T13:05:40;4.10;99.90
19058;DHT22;9662;53.612;9.914;2022-11-20T13:08:19;4.10;99.90
19058;DHT22;9662;53.612;9.914;2022-11-20T13:10:51;4.30;99.90
19058;DHT22;9662;53.612;9.914;2022-11-20T13:13:24;4.60;99.90
19058;DHT22;9662;53.612;9.914;2022-11-20T13:15:55;4.80;99.90
19058;DHT22;9662;53.612;9.914;2022-11-20T13:18:25;4.90;99.90
19058;DHT22;9662;53.612;9.914;2022-11-20T13:20:52;5.00;99.90
19058;DHT22;9662;53.612;9.914;2022-11-20T13:23:26;5.00;99.90
19058;DHT22;9662;53.612;9.914;2022-11-20T13:26:05;4.60;99.90
19058;DHT22;9662;53.612;9.914;2022-11-20T13:28:33;4.60;99.90
19058;DHT22;9662;53.612;9.914;2022-11-20T13:30:59;4.40;99.90
19058;DHT22;9662;53.612;9.914;2022-11-20T13:33:29;4.30;99.90
19058;DHT22;9662;53.612;9.914;2022-11-20T13:35:59;4.30;99.90
19058;DHT22;9662;53.612;9.914;2022-11-20T13:38:28;4.50;99.90
19058;DHT22;9662;53.612;9.914;2022-11-20T13:40:57;4.60;99.90
19058;DHT22;9662;53.612;9.914;2022-11-20T13:43:34;4.60;99.90
19058;DHT22;9662;53.612;9.914;2022-11-20T13:46:03;4.60;99.90
19058;DHT22;9662;53.612;9.914;2022-11-20T13:48:32;4.40;99.90
19058;DHT22;9662;53.612;9.914;2022-11-20T13:51:23;4.00;99.90
19058;DHT22;9662;53.612;9.914;2022-11-20T13:56:59;3.80;99.90
19058;DHT22;9662;53.612;9.914;2022-11-20T13:59:51;3.80;99.90
19058;DHT22;9662;53.612;9.914;2022-11-20T14:02:23;3.80;99.90
19058;DHT22;9662;53.612;9.914;2022-11-20T14:04:53;3.90;99.90
19058;DHT22;9662;53.612;9.914;2022-11-20T14:07:25;4.00;99.90
19058;DHT22;9662;53.612;9.914;2022-11-20T14:09:54;4.20;99.90
19058;DHT22;9662;53.612;9.914;2022-11-20T14:12:23;3.90;99.90
19058;DHT22;9662;53.612;9.914;2022-11-20T14:14:55;4.10;99.90
19058;DHT22;9662;53.612;9.914;2022-11-20T14:17:28;4.20;99.90
19058;DHT22;9662;53.612;9.914;2022-11-20T14:19:59;4.00;99.90
19058;DHT22;9662;53.612;9.914;2022-11-20T14:22:28;4.20;99.90
19058;DHT22;9662;53.612;9.914;2022-11-20T14:25:04;4.00;99.90
19058;DHT22;9662;53.612;9.914;2022-11-20T14:27:34;4.00;99.90
19058;DHT22;9662;53.612;9.914;2022-11-20T14:30:05;4.00;99.90
19058;DHT22;9662;53.612;9.914;2022-11-20T14:32:35;3.90;99.90
19058;DHT22;9662;53.612;9.914;2022-11-20T14:35:07;4.00;99.90
19058;DHT22;9662;53.612;9.914;2022-11-20T14:37:37;3.80;99.90
19058;DHT22;9662;53.612;9.914;2022-11-20T14:40:22;3.50;99.90
19058;DHT22;9662;53.612;9.914;2022-11-20T14:42:49;3.30;99.90
19058;DHT22;9662;53.612;9.914;2022-11-20T14:45:18;3.30;99.90
19058;DHT22;9662;53.612;9.914;2022-11-20T14:47:46;3.10;99.90
19058;DHT22;9662;53.612;9.914;2022-11-20T14:50:15;3.00;99.90
19058;DHT22;9662;53.612;9.914;2022-11-20T14:52:50;3.00;99.90
19058;DHT22;9662;53.612;9.914;2022-11-20T14:55:26;2.90;99.90
19058;DHT22;9662;53.612;9.914;2022-11-20T14:57:57;3.00;99.90
19058;DHT22;9662;53.612;9.914;2022-11-20T15:00:26;3.10;99.90
19058;DHT22;9662;53.612;9.914;2022-11-20T15:02:53;2.90;99.90
19058;DHT22;9662;53.612;9.914;2022-11-20T15:05:21;2.70;99.90
19058;DHT22;9662;53.612;9.914;2022-11-20T15:07:51;2.80;99.90
19058;DHT22;9662;53.612;9.914;2022-11-20T15:10:23;2.70;99.90
19058;DHT22;9662;53.612;9.914;2022-11-20T15:12:51;2.60;99.90
19058;DHT22;9662;53.612;9.914;2022-11-20T15:15:21;2.40;99.90
19058;DHT22;9662;53.612;9.914;2022-11-20T15:17:52;2.60;99.90
19058;DHT22;9662;53.612;9.914;2022-11-20T15:20:22;2.70;99.90
19058;DHT22;9662;53.612;9.914;2022-11-20T15:22:50;2.90;99.90
19058;DHT22;9662;53.612;9.914;2022-11-20T15:25:18;3.00;99.90
19058;DHT22;9662;53.612;9.914;2022-11-20T15:27:46;3.20;99.90
19058;DHT22;9662;53.612;9.914;2022-11-20T15:30:17;3.30;99.90
19058;DHT22;9662;53.612;9.914;2022-11-20T15:32:45;3.40;99.90
19058;DHT22;9662;53.612;9.914;2022-11-20T15:35:14;3.40;99.90
19058;DHT22;9662;53.612;9.914;2022-11-20T15:37:42;3.50;99.90
19058;DHT22;9662;53.612;9.914;2022-11-20T15:40:10;3.60;99.90
19058;DHT22;9662;53.612;9.914;2022-11-20T15:42:37;3.70;99.90
19058;DHT22;9662;53.612;9.914;2022-11-20T15:45:04;3.70;99.90
19058;DHT22;9662;53.612;9.914;2022-11-20T15:47:33;3.80;99.90
19058;DHT22;9662;53.612;9.914;2022-11-20T15:50:00;3.80;99.90
19058;DHT22;9662;53.612;9.914;2022-11-20T15:52:28;3.80;99.90
19058;DHT22;9662;53.612;9.914;2022-11-20T15:54:55;3.80;99.90
19058;DHT22;9662;53.612;9.914;2022-11-20T15:57:22;3.90;99.90
19058;DHT22;9662;53.612;9.914;2022-11-20T15:59:49;3.90;99.90
19058;DHT22;9662;53.612;9.914;2022-11-20T16:02:15;3.90;99.90
19058;DHT22;9662;53.612;9.914;2022-11-20T16:04:42;3.90;99.90
19058;DHT22;9662;53.612;9.914;2022-11-20T16:07:10;3.70;99.90
19058;DHT22;9662;53.612;9.914;2022-11-20T16:09:38;3.70;99.90
19058;DHT22;9662;53.612;9.914;2022-11-20T16:12:08;3.70;99.90
19058;DHT22;9662;53.612;9.914;2022-11-20T16:14:56;3.70;99.90
19058;DHT22;9662;53.612;9.914;2022-11-20T16:17:40;3.70;99.90
19058;DHT22;9662;53.612;9.914;2022-11-20T16:20:11;3.70;99.90
19058;DHT22;9662;53.612;9.914;2022-11-20T16:22:38;3.70;99.90
19058;DHT22;9662;53.612;9.914;2022-11-20T16:25:07;3.80;99.90
19058;DHT22;9662;53.612;9.914;2022-11-20T16:27:33;3.80;99.90
19058;DHT22;9662;53.612;9.914;2022-11-20T16:30:00;3.80;99.90